createdAt,value
2016-09-04T00:00:38.648Z,0
2016-09-04T00:01:38.791Z,0
2016-09-04T00:02:37.847Z,0
2016-09-04T00:03:38.496Z,0
2016-09-04T00:04:38.481Z,0
2016-09-04T00:05:38.659Z,0
2016-09-04T00:06:36.981Z,0
2016-09-04T00:07:37.910Z,0
2016-09-04T00:08:37.589Z,0
2016-09-04T00:09:38.666Z,0
2016-09-04T00:10:38.424Z,0
2016-09-04T00:11:38.338Z,0
2016-09-04T00:12:36.898Z,0
2016-09-04T00:13:38.061Z,0
2016-09-04T00:14:38.009Z,0
2016-09-04T00:15:38.159Z,0
2016-09-04T00:16:38.146Z,0
2016-09-04T00:17:38.090Z,0
2016-09-04T00:18:37.851Z,0
2016-09-04T00:19:37.316Z,0
2016-09-04T00:20:37.958Z,0
2016-09-04T00:21:37.710Z,0
2016-09-04T00:22:38.062Z,0
2016-09-04T00:23:37.389Z,0
2016-09-04T00:24:38.395Z,0
2016-09-04T00:25:37.735Z,0
2016-09-04T00:26:37.689Z,0
2016-09-04T00:27:37.010Z,0
2016-09-04T00:28:37.400Z,0
2016-09-04T00:29:36.650Z,0
2016-09-04T00:30:37.338Z,0
2016-09-04T00:31:37.250Z,0
2016-09-04T00:32:37.503Z,0
2016-09-04T00:33:37.164Z,0
2016-09-04T00:34:36.434Z,0
2016-09-04T00:35:37.273Z,0
2016-09-04T00:36:37.249Z,0
2016-09-04T00:37:36.369Z,0
2016-09-04T00:38:36.955Z,0
2016-09-04T00:39:36.920Z,0
2016-09-04T00:40:35.443Z,0
2016-09-04T00:41:36.120Z,0
2016-09-04T00:42:36.780Z,0
2016-09-04T00:43:36.718Z,0
2016-09-04T00:44:36.941Z,0
2016-09-04T00:45:36.870Z,0
2016-09-04T00:46:36.590Z,0
2016-09-04T00:47:36.613Z,0
2016-09-04T00:48:36.506Z,0
2016-09-04T00:49:36.473Z,0
2016-09-04T00:50:35.910Z,0
2016-09-04T00:51:37.169Z,0
2016-09-04T00:52:36.733Z,0
2016-09-04T00:53:36.480Z,0
2016-09-04T00:54:36.450Z,0
2016-09-04T00:55:36.396Z,0
2016-09-04T00:56:35.459Z,0
2016-09-04T00:57:35.807Z,0
2016-09-04T00:58:36.493Z,0
2016-09-04T00:59:36.250Z,0
2016-09-04T01:00:35.979Z,0
2016-09-04T01:01:36.360Z,0
2016-09-04T01:02:35.869Z,0
2016-09-04T01:03:36.041Z,0
2016-09-04T01:04:35.879Z,0
2016-09-04T01:05:35.778Z,0
2016-09-04T01:06:35.420Z,0
2016-09-04T01:07:35.660Z,0
2016-09-04T01:08:35.819Z,0
2016-09-04T01:09:35.769Z,0
2016-09-04T01:10:35.528Z,0
2016-09-04T01:11:35.683Z,0
2016-09-04T01:12:36.050Z,0
2016-09-04T01:13:35.394Z,0
2016-09-04T01:14:34.651Z,0
2016-09-04T01:15:34.115Z,0
2016-09-04T01:16:35.245Z,0
2016-09-04T01:17:34.901Z,0
2016-09-04T01:18:35.394Z,0
2016-09-04T01:19:35.358Z,0
2016-09-04T01:20:35.548Z,0
2016-09-04T01:21:34.687Z,0
2016-09-04T01:22:34.351Z,0
2016-09-04T01:23:34.405Z,0
2016-09-04T01:24:34.927Z,0
2016-09-04T01:25:34.897Z,0
2016-09-04T01:26:33.903Z,0
2016-09-04T01:27:34.823Z,0
2016-09-04T01:28:34.050Z,0
2016-09-04T01:29:35.503Z,0
2016-09-04T01:30:34.875Z,0
2016-09-04T01:31:34.787Z,0
2016-09-04T01:32:34.757Z,0
2016-09-04T01:33:34.036Z,0
2016-09-04T01:34:34.501Z,0
2016-09-04T01:35:34.415Z,0
2016-09-04T01:36:34.809Z,0
2016-09-04T01:37:34.548Z,0
2016-09-04T01:38:33.628Z,0
2016-09-04T01:39:35.050Z,0
2016-09-04T01:40:34.229Z,0
2016-09-04T01:41:34.360Z,0
2016-09-04T01:42:34.152Z,0
2016-09-04T01:43:34.284Z,0
2016-09-04T01:44:34.452Z,0
2016-09-04T01:45:34.195Z,0
2016-09-04T01:46:34.132Z,0
2016-09-04T01:47:34.126Z,0
2016-09-04T01:48:33.557Z,0
2016-09-04T01:49:33.504Z,0
2016-09-04T01:50:33.778Z,0
2016-09-04T01:51:33.953Z,0
2016-09-04T01:52:33.638Z,0
2016-09-04T01:53:33.851Z,0
2016-09-04T01:54:34.278Z,0
2016-09-04T01:55:33.745Z,0
2016-09-04T01:56:33.528Z,0
2016-09-04T01:57:33.497Z,0
2016-09-04T01:58:33.419Z,0
2016-09-04T01:59:33.652Z,0
2016-09-04T02:00:32.807Z,0
2016-09-04T02:01:32.083Z,0
2016-09-04T02:02:33.635Z,0
2016-09-04T02:03:32.511Z,0
2016-09-04T02:04:33.148Z,0
2016-09-04T02:05:33.108Z,0
2016-09-04T02:06:33.078Z,0
2016-09-04T02:07:33.426Z,0
2016-09-04T02:08:32.967Z,0
2016-09-04T02:09:32.929Z,0
2016-09-04T02:10:32.178Z,0
2016-09-04T02:11:32.399Z,0
2016-09-04T02:12:32.488Z,0
2016-09-04T02:13:33.139Z,0
2016-09-04T02:14:33.080Z,0
2016-09-04T02:15:32.649Z,0
2016-09-04T02:16:32.855Z,0
2016-09-04T02:17:32.770Z,0
2016-09-04T02:18:32.504Z,0
2016-09-04T02:19:31.298Z,0
2016-09-04T02:20:32.516Z,0
2016-09-04T02:21:32.397Z,0
2016-09-04T02:22:32.970Z,0
2016-09-04T02:23:32.978Z,0
2016-09-04T02:24:32.258Z,0
2016-09-04T02:25:32.812Z,0
2016-09-04T02:26:32.338Z,0
2016-09-04T02:27:32.758Z,0
2016-09-04T02:28:32.067Z,0
2016-09-04T02:29:32.059Z,0
2016-09-04T02:30:31.987Z,0
2016-09-04T02:31:32.148Z,0
2016-09-04T02:32:31.825Z,0
2016-09-04T02:33:31.947Z,0
2016-09-04T02:34:31.838Z,0
2016-09-04T02:35:31.788Z,0
2016-09-04T02:36:31.738Z,0
2016-09-04T02:37:31.948Z,0
2016-09-04T02:38:32.080Z,0
2016-09-04T02:39:30.420Z,0
2016-09-04T02:40:31.598Z,0
2016-09-04T02:41:31.567Z,0
2016-09-04T02:42:31.573Z,0
2016-09-04T02:43:31.486Z,0
2016-09-04T02:44:31.387Z,0
2016-09-04T02:45:31.434Z,0
2016-09-04T02:46:31.306Z,0
2016-09-04T02:47:31.767Z,0
2016-09-04T02:48:31.217Z,0
2016-09-04T02:49:29.981Z,0
2016-09-04T02:50:31.136Z,0
2016-09-04T02:51:31.271Z,0
2016-09-04T02:52:31.235Z,0
2016-09-04T02:53:30.973Z,0
2016-09-04T02:54:30.227Z,0
2016-09-04T02:55:31.507Z,0
2016-09-04T02:56:31.448Z,0
2016-09-04T02:57:31.008Z,0
2016-09-04T02:58:30.778Z,0
2016-09-04T02:59:30.918Z,0
2016-09-04T03:00:30.907Z,0
2016-09-04T03:01:30.851Z,0
2016-09-04T03:02:30.567Z,0
2016-09-04T03:03:28.422Z,0
2016-09-04T03:04:29.788Z,0
2016-09-04T03:05:30.436Z,0
2016-09-04T03:06:30.397Z,0
2016-09-04T03:07:44.545Z,0
2016-09-04T03:08:30.505Z,0
2016-09-04T03:09:30.262Z,0
2016-09-04T03:10:30.414Z,0
2016-09-04T03:11:30.197Z,0
2016-09-04T03:12:29.498Z,0
2016-09-04T03:13:29.820Z,0
2016-09-04T03:14:30.025Z,0
2016-09-04T03:15:30.289Z,0
2016-09-04T03:16:28.535Z,0
2016-09-04T03:17:29.437Z,0
2016-09-04T03:18:29.847Z,0
2016-09-04T03:19:30.086Z,0
2016-09-04T03:20:29.839Z,0
2016-09-04T03:21:29.170Z,0
2016-09-04T03:22:29.637Z,0
2016-09-04T03:23:28.238Z,0
2016-09-04T03:24:29.611Z,0
2016-09-04T03:25:29.760Z,0
2016-09-04T03:26:29.756Z,0
2016-09-04T03:27:29.542Z,0
2016-09-04T03:28:29.689Z,0
2016-09-04T03:29:29.708Z,0
2016-09-04T03:30:29.511Z,0
2016-09-04T03:31:29.967Z,0
2016-09-04T03:32:29.549Z,0
2016-09-04T03:33:29.617Z,0
2016-09-04T03:34:29.133Z,0
2016-09-04T03:35:29.513Z,0
2016-09-04T03:36:28.605Z,0
2016-09-04T03:37:28.364Z,0
2016-09-04T03:38:29.008Z,0
2016-09-04T03:39:28.939Z,0
2016-09-04T03:40:28.245Z,0
2016-09-04T03:41:28.342Z,0
2016-09-04T03:42:28.890Z,0
2016-09-04T03:43:28.801Z,0
2016-09-04T03:44:28.777Z,0
2016-09-04T03:45:28.678Z,0
2016-09-04T03:46:28.808Z,0
2016-09-04T03:47:28.764Z,0
2016-09-04T03:48:27.877Z,0
2016-09-04T03:49:27.806Z,0
2016-09-04T03:50:27.979Z,0
2016-09-04T03:51:28.503Z,0
2016-09-04T03:52:28.541Z,0
2016-09-04T03:53:28.798Z,0
2016-09-04T03:54:28.437Z,0
2016-09-04T03:55:28.275Z,0
2016-09-04T03:56:28.380Z,0
2016-09-04T03:57:28.560Z,0
2016-09-04T03:58:28.091Z,0
2016-09-04T03:59:27.336Z,0
2016-09-04T04:00:28.424Z,0
2016-09-04T04:01:27.238Z,0
2016-09-04T04:02:28.088Z,0
2016-09-04T04:03:27.853Z,0
2016-09-04T04:04:27.820Z,0
2016-09-04T04:05:27.258Z,0
2016-09-04T04:06:27.718Z,0
2016-09-04T04:07:27.684Z,0
2016-09-04T04:08:27.827Z,0
2016-09-04T04:09:27.096Z,0
2016-09-04T04:10:27.747Z,0
2016-09-04T04:11:27.689Z,0
2016-09-04T04:12:26.802Z,0
2016-09-04T04:13:27.390Z,0
2016-09-04T04:14:27.410Z,0
2016-09-04T04:15:27.291Z,0
2016-09-04T04:16:27.479Z,0
2016-09-04T04:17:28.036Z,0
2016-09-04T04:18:26.477Z,0
2016-09-04T04:19:26.820Z,0
2016-09-04T04:20:26.689Z,0
2016-09-04T04:21:27.088Z,0
2016-09-04T04:22:26.990Z,0
2016-09-04T04:23:26.958Z,0
2016-09-04T04:24:26.889Z,0
2016-09-04T04:25:26.886Z,0
2016-09-04T04:26:26.987Z,0
2016-09-04T04:27:26.833Z,0
2016-09-04T04:28:26.034Z,0
2016-09-04T04:29:26.008Z,0
2016-09-04T04:30:26.827Z,0
2016-09-04T04:31:26.798Z,0
2016-09-04T04:32:26.760Z,0
2016-09-04T04:33:26.554Z,0
2016-09-04T04:34:26.655Z,0
2016-09-04T04:35:26.498Z,0
2016-09-04T04:36:26.769Z,0
2016-09-04T04:37:26.656Z,0
2016-09-04T04:38:26.466Z,0
2016-09-04T04:39:26.404Z,0
2016-09-04T04:40:26.199Z,0
2016-09-04T04:41:25.430Z,0
2016-09-04T04:42:25.448Z,0
2016-09-04T04:43:25.449Z,0
2016-09-04T04:44:25.989Z,0
2016-09-04T04:45:26.154Z,0
2016-09-04T04:46:26.148Z,0
2016-09-04T04:47:25.369Z,0
2016-09-04T04:48:25.318Z,0
2016-09-04T04:49:25.990Z,0
2016-09-04T04:50:25.805Z,0
2016-09-04T04:51:25.678Z,0
2016-09-04T04:52:25.729Z,0
2016-09-04T04:53:25.597Z,0
2016-09-04T04:54:25.069Z,0
2016-09-04T04:55:24.997Z,0
2016-09-04T04:56:25.696Z,0
2016-09-04T04:57:25.604Z,0
2016-09-04T04:58:24.661Z,0
2016-09-04T04:59:24.611Z,0
2016-09-04T05:00:25.268Z,0
2016-09-04T05:01:24.740Z,0
2016-09-04T05:02:25.164Z,0
2016-09-04T05:03:24.437Z,0
2016-09-04T05:04:25.500Z,0
2016-09-04T05:05:25.248Z,0
2016-09-04T05:06:25.214Z,0
2016-09-04T05:07:25.761Z,0
2016-09-04T05:08:24.209Z,0
2016-09-04T05:09:24.867Z,0
2016-09-04T05:10:25.218Z,0
2016-09-04T05:11:23.574Z,0
2016-09-04T05:12:24.731Z,0
2016-09-04T05:13:24.738Z,0
2016-09-04T05:14:24.647Z,0
2016-09-04T05:15:24.628Z,0
2016-09-04T05:16:24.566Z,0
2016-09-04T05:17:24.744Z,0
2016-09-04T05:18:24.648Z,0
2016-09-04T05:19:23.905Z,0
2016-09-04T05:20:24.365Z,0
2016-09-04T05:21:24.328Z,0
2016-09-04T05:22:24.487Z,0
2016-09-04T05:23:24.228Z,0
2016-09-04T05:24:23.670Z,0
2016-09-04T05:25:24.541Z,0
2016-09-04T05:26:24.074Z,0
2016-09-04T05:27:24.058Z,0
2016-09-04T05:28:24.423Z,0
2016-09-04T05:29:23.669Z,0
2016-09-04T05:30:24.297Z,0
2016-09-04T05:31:23.927Z,0
2016-09-04T05:32:23.893Z,0
2016-09-04T05:33:23.754Z,0
2016-09-04T05:34:23.937Z,0
2016-09-04T05:35:22.997Z,0
2016-09-04T05:36:23.605Z,0
2016-09-04T05:37:22.883Z,0
2016-09-04T05:38:23.536Z,0
2016-09-04T05:39:22.790Z,0
2016-09-04T05:40:23.871Z,0
2016-09-04T05:41:23.623Z,0
2016-09-04T05:42:23.559Z,0
2016-09-04T05:43:23.348Z,0
2016-09-04T05:44:23.461Z,0
2016-09-04T05:45:22.719Z,0
2016-09-04T05:46:22.513Z,0
2016-09-04T05:47:22.486Z,0
2016-09-04T05:48:22.383Z,0
2016-09-04T05:49:22.017Z,0
2016-09-04T05:50:23.433Z,0
2016-09-04T05:51:22.997Z,0
2016-09-04T05:52:23.116Z,0
2016-09-04T05:53:22.365Z,0
2016-09-04T05:54:23.011Z,0
2016-09-04T05:55:22.285Z,0
2016-09-04T05:56:22.722Z,5
2016-09-04T05:57:22.700Z,5
2016-09-04T05:58:22.624Z,5
2016-09-04T05:59:21.881Z,5
2016-09-04T06:00:22.816Z,5
2016-09-04T06:01:22.488Z,5
2016-09-04T06:02:22.607Z,5
2016-09-04T06:03:22.591Z,5
2016-09-04T06:04:22.566Z,5
2016-09-04T06:05:22.509Z,5
2016-09-04T06:06:21.053Z,10
2016-09-04T06:07:21.511Z,10
2016-09-04T06:08:22.219Z,10
2016-09-04T06:09:22.131Z,10
2016-09-04T06:10:22.080Z,10
2016-09-04T06:11:22.226Z,10
2016-09-04T06:12:21.988Z,10
2016-09-04T06:13:21.939Z,10
2016-09-04T06:14:20.687Z,10
2016-09-04T06:15:21.363Z,10
2016-09-04T06:16:21.797Z,10
2016-09-04T06:17:21.946Z,10
2016-09-04T06:18:21.908Z,5
2016-09-04T06:19:21.173Z,5
2016-09-04T06:20:21.827Z,5
2016-09-04T06:21:21.597Z,5
2016-09-04T06:22:21.516Z,5
2016-09-04T06:23:21.988Z,5
2016-09-04T06:24:21.897Z,5
2016-09-04T06:25:20.716Z,10
2016-09-04T06:26:21.750Z,10
2016-09-04T06:27:20.715Z,10
2016-09-04T06:28:20.747Z,10
2016-09-04T06:29:20.080Z,5
2016-09-04T06:30:21.349Z,5
2016-09-04T06:31:21.335Z,5
2016-09-04T06:32:21.195Z,5
2016-09-04T06:33:20.327Z,5
2016-09-04T06:34:21.189Z,5
2016-09-04T06:35:21.165Z,5
2016-09-04T06:36:20.909Z,5
2016-09-04T06:37:20.851Z,10
2016-09-04T06:38:21.052Z,10
2016-09-04T06:39:20.754Z,10
2016-09-04T06:40:21.103Z,15
2016-09-04T06:41:20.865Z,15
2016-09-04T06:42:20.657Z,15
2016-09-04T06:43:20.566Z,20
2016-09-04T06:44:20.510Z,20
2016-09-04T06:45:20.475Z,20
2016-09-04T06:46:19.047Z,20
2016-09-04T06:47:20.627Z,25
2016-09-04T06:48:19.879Z,25
2016-09-04T06:49:20.914Z,25
2016-09-04T06:50:20.247Z,25
2016-09-04T06:51:20.646Z,25
2016-09-04T06:52:20.167Z,25
2016-09-04T06:53:19.828Z,25
2016-09-04T06:54:20.285Z,25
2016-09-04T06:55:20.016Z,25
2016-09-04T06:56:19.999Z,30
2016-09-04T06:57:20.156Z,30
2016-09-04T06:58:19.887Z,30
2016-09-04T06:59:20.068Z,30
2016-09-04T07:00:20.799Z,30
2016-09-04T07:01:19.802Z,25
2016-09-04T07:02:19.196Z,25
2016-09-04T07:03:20.096Z,30
2016-09-04T07:04:19.728Z,30
2016-09-04T07:05:19.786Z,30
2016-09-04T07:06:19.717Z,30
2016-09-04T07:07:19.662Z,30
2016-09-04T07:08:19.449Z,30
2016-09-04T07:09:19.619Z,30
2016-09-04T07:10:19.476Z,30
2016-09-04T07:11:19.279Z,30
2016-09-04T07:12:19.256Z,30
2016-09-04T07:13:19.459Z,30
2016-09-04T07:14:19.363Z,30
2016-09-04T07:15:19.113Z,25
2016-09-04T07:16:19.148Z,25
2016-09-04T07:17:19.055Z,25
2016-09-04T07:18:18.968Z,25
2016-09-04T07:19:18.929Z,25
2016-09-04T07:20:19.098Z,25
2016-09-04T07:21:18.597Z,25
2016-09-04T07:22:19.000Z,25
2016-09-04T07:23:18.985Z,30
2016-09-04T07:24:18.109Z,30
2016-09-04T07:25:17.968Z,30
2016-09-04T07:26:18.808Z,30
2016-09-04T07:27:18.802Z,30
2016-09-04T07:28:17.837Z,30
2016-09-04T07:29:18.692Z,30
2016-09-04T07:30:17.730Z,30
2016-09-04T07:31:18.092Z,30
2016-09-04T07:32:18.357Z,30
2016-09-04T07:33:17.607Z,30
2016-09-04T07:34:18.263Z,25
2016-09-04T07:35:17.558Z,25
2016-09-04T07:36:18.148Z,25
2016-09-04T07:37:18.133Z,25
2016-09-04T07:38:18.278Z,25
2016-09-04T07:39:18.368Z,25
2016-09-04T07:40:17.967Z,25
2016-09-04T07:41:18.171Z,25
2016-09-04T07:42:16.668Z,20
2016-09-04T07:43:17.831Z,20
2016-09-04T07:44:17.797Z,20
2016-09-04T07:45:18.027Z,20
2016-09-04T07:46:16.509Z,20
2016-09-04T07:47:18.087Z,25
2016-09-04T07:48:17.951Z,25
2016-09-04T07:49:17.776Z,30
2016-09-04T07:50:17.915Z,50
2016-09-04T07:51:17.017Z,60
2016-09-04T07:52:16.970Z,65
2016-09-04T07:53:16.696Z,65
2016-09-04T07:54:17.613Z,85
2016-09-04T07:55:17.708Z,95
2016-09-04T07:56:17.779Z,95
2016-09-04T07:57:17.628Z,85
2016-09-04T07:58:17.178Z,80
2016-09-04T07:59:17.317Z,95
2016-09-04T08:00:17.073Z,135
2016-09-04T08:01:17.098Z,75
2016-09-04T08:02:16.297Z,110
2016-09-04T08:03:16.236Z,145
2016-09-04T08:04:16.429Z,105
2016-09-04T08:05:16.576Z,125
2016-09-04T08:06:16.116Z,140
2016-09-04T08:07:16.766Z,90
2016-09-04T08:08:16.462Z,70
2016-09-04T08:09:16.796Z,85
2016-09-04T08:10:17.483Z,80
2016-09-04T08:11:16.569Z,150
2016-09-04T08:12:16.537Z,105
2016-09-04T08:13:16.720Z,125
2016-09-04T08:14:16.443Z,75
2016-09-04T08:15:16.426Z,75
2016-09-04T08:16:15.660Z,105
2016-09-04T08:17:16.327Z,140
2016-09-04T08:18:16.300Z,70
2016-09-04T08:19:16.625Z,60
2016-09-04T08:20:16.414Z,90
2016-09-04T08:21:15.683Z,75
2016-09-04T08:22:16.087Z,60
2016-09-04T08:23:16.048Z,60
2016-09-04T08:24:15.520Z,60
2016-09-04T08:25:15.966Z,100
2016-09-04T08:26:16.225Z,75
2016-09-04T08:27:15.874Z,75
2016-09-04T08:28:16.634Z,90
2016-09-04T08:29:15.770Z,70
2016-09-04T08:30:15.742Z,65
2016-09-04T08:31:15.896Z,55
2016-09-04T08:32:15.669Z,55
2016-09-04T08:33:16.015Z,50
2016-09-04T08:34:15.577Z,45
2016-09-04T08:35:14.818Z,45
2016-09-04T08:36:15.924Z,45
2016-09-04T08:37:14.936Z,45
2016-09-04T08:38:15.455Z,40
2016-09-04T08:39:15.338Z,35
2016-09-04T08:40:14.895Z,30
2016-09-04T08:41:14.535Z,25
2016-09-04T08:42:14.502Z,25
2016-09-04T08:43:14.865Z,20
2016-09-04T08:44:15.134Z,15
2016-09-04T08:45:15.265Z,20
2016-09-04T08:46:16.424Z,20
2016-09-04T08:47:15.065Z,25
2016-09-04T08:48:14.964Z,30
2016-09-04T08:49:14.904Z,35
2016-09-04T08:50:14.832Z,45
2016-09-04T08:51:14.246Z,45
2016-09-04T08:52:15.153Z,40
2016-09-04T08:53:15.563Z,40
2016-09-04T08:54:14.712Z,40
2016-09-04T08:55:14.933Z,35
2016-09-04T08:56:14.624Z,35
2016-09-04T08:57:13.832Z,35
2016-09-04T08:58:14.534Z,40
2016-09-04T08:59:14.428Z,35
2016-09-04T09:00:14.412Z,35
2016-09-04T09:01:14.080Z,30
2016-09-04T09:02:14.324Z,30
2016-09-04T09:03:13.583Z,35
2016-09-04T09:04:14.204Z,40
2016-09-04T09:05:14.194Z,45
2016-09-04T09:06:14.372Z,50
2016-09-04T09:07:14.123Z,60
2016-09-04T09:08:14.153Z,65
2016-09-04T09:09:14.002Z,55
2016-09-04T09:10:14.173Z,55
2016-09-04T09:11:13.938Z,45
2016-09-04T09:12:13.895Z,45
2016-09-04T09:13:13.116Z,45
2016-09-04T09:14:13.997Z,40
2016-09-04T09:15:14.530Z,35
2016-09-04T09:16:13.690Z,30
2016-09-04T09:17:13.841Z,25
2016-09-04T09:18:13.889Z,20
2016-09-04T09:19:13.575Z,15
2016-09-04T09:20:13.508Z,15
2016-09-04T09:21:13.461Z,15
2016-09-04T09:22:13.620Z,15
2016-09-04T09:23:13.582Z,10
2016-09-04T09:24:12.628Z,10
2016-09-04T09:25:13.519Z,10
2016-09-04T09:26:13.245Z,5
2016-09-04T09:27:13.213Z,5
2016-09-04T09:28:13.050Z,5
2016-09-04T09:29:13.105Z,5
2016-09-04T09:30:13.688Z,5
2016-09-04T09:31:13.217Z,5
2016-09-04T09:32:12.322Z,5
2016-09-04T09:33:12.942Z,5
2016-09-04T09:34:12.412Z,5
2016-09-04T09:35:12.858Z,5
2016-09-04T09:36:12.992Z,5
2016-09-04T09:37:12.070Z,5
2016-09-04T09:38:12.221Z,5
2016-09-04T09:39:11.947Z,10
2016-09-04T09:40:12.632Z,15
2016-09-04T09:41:11.877Z,15
2016-09-04T09:42:12.633Z,15
2016-09-04T09:43:12.698Z,20
2016-09-04T09:44:12.469Z,15
2016-09-04T09:45:11.890Z,15
2016-09-04T09:46:11.690Z,15
2016-09-04T09:47:12.732Z,10
2016-09-04T09:48:12.281Z,5
2016-09-04T09:49:12.223Z,0
2016-09-04T09:50:12.580Z,0
2016-09-04T09:51:12.317Z,0
2016-09-04T09:52:12.423Z,0
2016-09-04T09:53:12.032Z,5
2016-09-04T09:54:12.560Z,5
2016-09-04T09:55:11.313Z,5
2016-09-04T09:56:12.322Z,0
2016-09-04T09:57:12.069Z,0
2016-09-04T09:58:10.489Z,0
2016-09-04T09:59:11.292Z,0
2016-09-04T10:00:11.730Z,0
2016-09-04T10:01:11.183Z,0
2016-09-04T10:02:12.031Z,0
2016-09-04T10:03:10.455Z,0
2016-09-04T10:04:11.753Z,0
2016-09-04T10:05:10.838Z,5
2016-09-04T10:06:11.454Z,5
2016-09-04T10:07:11.490Z,5
2016-09-04T10:08:11.562Z,5
2016-09-04T10:09:11.314Z,5
2016-09-04T10:10:11.274Z,5
2016-09-04T10:11:10.553Z,5
